Time;durP1;ratioP1;P1;durP2;ratioP2;P2;SDS_P1;SDS_P2;PMS_P1;PMS_P2;Temp;Humidity;BMP_temperature;BMP_pressure;BME280_temperature;BME280_humidity;BME280_pressure;Samples;Min_cycle;Max_cycle;Signal;HPM_P1;HPM_P2
2021/05/07 00:00:56;;;;;;;32.33;19.17;;;3.00;99.90;;;;;;5065316;28;20200;-63
2021/05/07 00:03:24;;;;;;;30.13;18.67;;;3.00;99.90;;;;;;5063113;28;20242;-63
2021/05/07 00:05:54;;;;;;;32.90;18.97;;;3.00;99.90;;;;;;5062085;28;20991;-62
2021/05/07 00:08:22;;;;;;;37.17;19.63;;;3.00;99.90;;;;;;5063940;28;20188;-63
2021/05/07 00:10:50;;;;;;;32.23;19.07;;;2.90;99.90;;;;;;5068337;28;20208;-63
2021/05/07 00:13:17;;;;;;;31.77;18.93;;;2.90;99.90;;;;;;5064165;28;20192;-63
2021/05/07 00:15:45;;;;;;;35.03;20.27;;;2.90;99.90;;;;;;5065610;28;20555;-63
2021/05/07 00:18:13;;;;;;;34.90;20.33;;;2.90;99.90;;;;;;5062861;28;20777;-63
2021/05/07 00:20:41;;;;;;;33.50;20.13;;;2.90;99.90;;;;;;5066018;28;20203;-63
2021/05/07 00:23:08;;;;;;;34.93;19.70;;;2.90;99.90;;;;;;5067320;28;20294;-63
2021/05/07 00:25:36;;;;;;;31.23;19.63;;;2.90;99.90;;;;;;5065458;28;20188;-64
2021/05/07 00:28:06;;;;;;;37.83;21.73;;;2.90;99.90;;;;;;5062385;28;20196;-63
2021/05/07 00:30:34;;;;;;;43.33;22.40;;;2.80;99.90;;;;;;5062718;28;20253;-63
2021/05/07 00:33:02;;;;;;;42.20;22.57;;;2.90;99.90;;;;;;5063093;28;20200;-63
2021/05/07 00:35:30;;;;;;;40.43;23.00;;;3.00;99.90;;;;;;5062392;28;20292;-63
2021/05/07 00:37:58;;;;;;;45.33;23.43;;;3.00;99.90;;;;;;5062472;28;20257;-62
2021/05/07 00:40:26;;;;;;;37.37;22.30;;;3.10;99.90;;;;;;5060181;28;20244;-63
2021/05/07 00:42:53;;;;;;;40.30;22.43;;;3.10;99.90;;;;;;5066313;28;20200;-63
2021/05/07 00:45:21;;;;;;;40.33;22.40;;;3.00;99.90;;;;;;5062863;28;20253;-64
2021/05/07 00:47:52;;;;;;;37.60;22.20;;;3.00;99.90;;;;;;5060444;28;20292;-64
2021/05/07 00:50:20;;;;;;;37.97;21.87;;;2.90;99.90;;;;;;5068763;28;20279;-63
2021/05/07 00:52:48;;;;;;;44.33;22.97;;;2.90;99.90;;;;;;5066020;28;20196;-64
2021/05/07 00:55:16;;;;;;;45.23;23.27;;;3.00;99.90;;;;;;5071593;28;20678;-63
2021/05/07 00:57:43;;;;;;;42.60;24.60;;;3.10;99.90;;;;;;5060302;28;20211;-63
2021/05/07 01:00:12;;;;;;;42.50;23.57;;;3.10;99.90;;;;;;5061378;28;20761;-63
2021/05/07 01:02:42;;;;;;;43.40;24.70;;;3.20;99.90;;;;;;5061526;28;20344;-64
2021/05/07 01:05:12;;;;;;;51.77;26.10;;;3.30;99.90;;;;;;5063114;28;20281;-64
2021/05/07 01:07:40;;;;;;;47.30;25.63;;;3.40;99.90;;;;;;5062914;28;20192;-64
2021/05/07 01:10:11;;;;;;;45.07;24.57;;;3.40;99.90;;;;;;5063144;28;20204;-64
2021/05/07 01:12:41;;;;;;;46.53;24.93;;;3.40;99.90;;;;;;5067293;28;20206;-64
2021/05/07 01:15:12;;;;;;;43.40;24.63;;;3.40;99.90;;;;;;5063170;28;20193;-63
2021/05/07 01:17:42;;;;;;;47.03;24.13;;;3.40;99.90;;;;;;5060061;28;20243;-63
2021/05/07 01:20:14;;;;;;;40.77;23.73;;;3.40;99.90;;;;;;5062910;28;20216;-63
2021/05/07 01:22:43;;;;;;;42.97;24.63;;;3.30;99.90;;;;;;5066247;28;20261;-63
2021/05/07 01:25:12;;;;;;;42.93;23.47;;;3.30;99.90;;;;;;5064877;28;20204;-63
2021/05/07 01:27:41;;;;;;;44.17;24.70;;;3.30;99.90;;;;;;5061796;28;20283;-63
2021/05/07 01:30:11;;;;;;;45.77;24.83;;;3.30;99.90;;;;;;5064742;28;20521;-63
2021/05/07 01:32:38;;;;;;;47.77;25.10;;;3.30;99.90;;;;;;5061174;28;20245;-63
2021/05/07 01:35:09;;;;;;;44.73;24.97;;;3.30;99.90;;;;;;5073435;28;20199;-63
2021/05/07 01:37:38;;;;;;;50.13;25.90;;;3.20;99.90;;;;;;5069316;28;20220;-64
2021/05/07 01:40:14;;;;;;;47.87;25.33;;;3.20;99.90;;;;;;5066714;28;20698;-63
2021/05/07 01:42:42;;;;;;;50.37;24.73;;;3.20;99.90;;;;;;5064514;28;20204;-63
2021/05/07 01:45:10;;;;;;;43.47;24.73;;;3.20;99.90;;;;;;5064043;28;20223;-63
2021/05/07 01:47:37;;;;;;;49.40;25.67;;;3.20;99.90;;;;;;5065239;28;20192;-63
2021/05/07 01:50:07;;;;;;;51.83;26.70;;;3.10;99.90;;;;;;5063162;28;20185;-63
2021/05/07 01:52:35;;;;;;;50.63;25.40;;;3.20;99.90;;;;;;5066689;28;20208;-63
2021/05/07 01:55:08;;;;;;;45.37;24.73;;;3.10;99.90;;;;;;5072821;28;20655;-63
2021/05/07 01:57:36;;;;;;;50.63;25.97;;;3.20;99.90;;;;;;5060721;28;20817;-63
2021/05/07 02:00:08;;;;;;;54.13;25.97;;;3.20;99.90;;;;;;5064841;28;20290;-63
2021/05/07 02:02:35;;;;;;;45.90;25.67;;;3.20;99.90;;;;;;5066760;28;20620;-63
2021/05/07 02:05:04;;;;;;;44.27;24.23;;;3.20;99.90;;;;;;5061359;28;20211;-63
2021/05/07 02:07:31;;;;;;;45.13;25.27;;;3.20;99.90;;;;;;5063186;28;20196;-64
2021/05/07 02:09:59;;;;;;;47.77;26.07;;;3.20;99.90;;;;;;5065608;28;20258;-63
2021/05/07 02:12:28;;;;;;;45.87;25.10;;;3.20;99.90;;;;;;5065943;28;20239;-64
2021/05/07 02:14:56;;;;;;;44.97;24.63;;;3.20;99.90;;;;;;5065127;28;20732;-63
2021/05/07 02:17:23;;;;;;;46.43;25.93;;;3.20;99.90;;;;;;5065255;28;20724;-64
2021/05/07 02:19:51;;;;;;;49.07;24.37;;;3.20;99.90;;;;;;5062896;28;20623;-63
2021/05/07 02:22:18;;;;;;;43.70;24.57;;;3.30;99.90;;;;;;5063313;28;20223;-63
2021/05/07 02:24:46;;;;;;;45.40;23.33;;;3.30;99.90;;;;;;5065633;28;20271;-63
2021/05/07 02:27:13;;;;;;;42.63;23.50;;;3.30;99.90;;;;;;5062290;28;20200;-63
2021/05/07 02:29:41;;;;;;;36.67;22.33;;;3.40;99.90;;;;;;5060517;28;20616;-63
2021/05/07 02:32:11;;;;;;;39.60;21.57;;;3.40;99.90;;;;;;5062419;28;20239;-63
2021/05/07 02:34:39;;;;;;;36.53;20.87;;;3.50;99.90;;;;;;5066314;28;20196;-64
2021/05/07 02:37:06;;;;;;;38.17;21.57;;;3.50;99.90;;;;;;5062418;28;20216;-63
2021/05/07 02:39:33;;;;;;;36.00;20.63;;;3.60;99.90;;;;;;5065195;28;20298;-63
2021/05/07 02:42:01;;;;;;;35.50;20.40;;;3.60;99.90;;;;;;5065454;28;20192;-63
2021/05/07 02:44:28;;;;;;;37.60;19.90;;;3.60;99.90;;;;;;5064853;28;20192;-64
2021/05/07 02:47:03;;;;;;;35.13;19.60;;;3.60;99.90;;;;;;5061266;28;20257;-64
2021/05/07 02:49:31;;;;;;;29.00;18.60;;;3.70;99.90;;;;;;5060363;28;20767;-64
2021/05/07 02:52:00;;;;;;;37.10;17.97;;;3.80;99.90;;;;;;5065305;28;20655;-64
2021/05/07 02:54:29;;;;;;;33.40;17.90;;;3.90;99.90;;;;;;5065013;28;20276;-64
2021/05/07 02:56:56;;;;;;;30.33;18.37;;;3.90;99.90;;;;;;5062947;28;20188;-63
2021/05/07 02:59:24;;;;;;;29.80;17.93;;;3.90;99.90;;;;;;5067695;28;20634;-64
2021/05/07 03:01:51;;;;;;;29.00;17.10;;;3.90;99.90;;;;;;5059828;28;20207;-64
2021/05/07 03:04:20;;;;;;;36.20;19.37;;;4.00;99.90;;;;;;5063247;28;20192;-63
2021/05/07 03:06:48;;;;;;;30.80;17.13;;;4.10;99.90;;;;;;5060311;28;20223;-63
2021/05/07 03:09:15;;;;;;;30.67;19.00;;;4.10;99.90;;;;;;5065074;28;20192;-63
2021/05/07 03:11:43;;;;;;;32.07;18.73;;;4.20;99.90;;;;;;5064472;28;20663;-63
2021/05/07 03:14:11;;;;;;;34.93;18.60;;;4.20;99.90;;;;;;5060583;28;20655;-62
2021/05/07 03:16:39;;;;;;;33.07;19.20;;;4.20;99.90;;;;;;5063807;28;20273;-63
2021/05/07 03:19:06;;;;;;;31.83;19.77;;;4.30;99.90;;;;;;5062993;28;20219;-63
2021/05/07 03:21:36;;;;;;;27.90;16.87;;;4.30;99.90;;;;;;5071759;28;20211;-63
2021/05/07 03:24:04;;;;;;;31.53;18.37;;;4.40;99.90;;;;;;5065731;28;20199;-61
2021/05/07 03:26:31;;;;;;;31.87;17.13;;;4.40;99.90;;;;;;5061254;28;20749;-63
2021/05/07 03:28:59;;;;;;;33.00;17.63;;;4.40;99.90;;;;;;5062122;28;20188;-63
2021/05/07 03:31:26;;;;;;;34.90;18.17;;;4.50;99.90;;;;;;5065604;28;20197;-63
2021/05/07 03:33:54;;;;;;;29.40;16.97;;;4.50;99.90;;;;;;5064400;28;20241;-63
2021/05/07 03:36:22;;;;;;;36.90;17.87;;;4.50;99.90;;;;;;5063123;28;20278;-62
2021/05/07 03:38:50;;;;;;;33.70;17.40;;;4.50;99.90;;;;;;5061248;28;20197;-62
2021/05/07 03:41:17;;;;;;;30.30;17.67;;;4.50;99.90;;;;;;5064194;28;20659;-62
2021/05/07 03:43:46;;;;;;;34.40;18.57;;;4.50;99.90;;;;;;5064060;28;20730;-63
2021/05/07 03:46:14;;;;;;;33.30;16.43;;;4.50;99.90;;;;;;5064875;28;20199;-63
2021/05/07 03:48:46;;;;;;;24.43;14.60;;;4.50;99.90;;;;;;5062074;28;20231;-63
2021/05/07 03:51:14;;;;;;;23.33;13.93;;;4.60;99.90;;;;;;5063367;28;20210;-63
2021/05/07 03:53:41;;;;;;;22.00;13.80;;;4.70;99.90;;;;;;5064712;28;20200;-64
2021/05/07 03:56:09;;;;;;;24.00;13.60;;;4.80;99.90;;;;;;5051394;28;20191;-63
2021/05/07 03:58:37;;;;;;;21.43;12.00;;;4.80;99.90;;;;;;5062285;28;20199;-64
2021/05/07 04:01:07;;;;;;;20.97;12.07;;;4.90;99.90;;;;;;5058786;28;20282;-64
2021/05/07 04:03:35;;;;;;;16.17;9.87;;;4.90;99.90;;;;;;5064201;28;20180;-64
2021/05/07 04:06:02;;;;;;;18.87;10.83;;;5.00;99.90;;;;;;5063996;28;20200;-64
2021/05/07 04:08:33;;;;;;;20.40;10.73;;;5.00;99.90;;;;;;5063024;28;20219;-64
2021/05/07 04:11:04;;;;;;;17.03;10.57;;;5.00;99.90;;;;;;5063182;28;20245;-63
2021/05/07 04:13:39;;;;;;;18.43;11.07;;;5.00;99.90;;;;;;5063816;28;20315;-63
2021/05/07 04:16:07;;;;;;;21.40;10.47;;;5.00;99.90;;;;;;5059211;28;20226;-63
2021/05/07 04:18:40;;;;;;;21.17;11.20;;;4.90;99.90;;;;;;5063310;28;20780;-63
2021/05/07 04:21:08;;;;;;;20.77;12.17;;;4.90;99.90;;;;;;5062054;28;20713;-63
2021/05/07 04:23:36;;;;;;;21.30;11.80;;;4.90;99.90;;;;;;5063137;28;20203;-63
2021/05/07 04:26:03;;;;;;;21.00;12.23;;;4.90;99.90;;;;;;5062659;28;20187;-64
2021/05/07 04:28:32;;;;;;;19.10;12.27;;;4.90;99.90;;;;;;5064188;28;20192;-63
2021/05/07 04:31:00;;;;;;;18.43;11.53;;;5.00;99.90;;;;;;5057952;28;20338;-63
2021/05/07 04:33:27;;;;;;;19.47;11.90;;;5.00;99.90;;;;;;5060357;28;20330;-64
2021/05/07 04:35:54;;;;;;;22.77;11.93;;;5.00;99.90;;;;;;5063441;28;20219;-63
2021/05/07 04:38:22;;;;;;;22.10;11.87;;;5.00;99.90;;;;;;5064400;28;20195;-64
2021/05/07 04:40:50;;;;;;;24.20;12.00;;;5.00;99.90;;;;;;5062766;28;20204;-64
2021/05/07 04:43:17;;;;;;;24.20;12.07;;;5.00;99.90;;;;;;5066415;28;20230;-63
2021/05/07 04:45:45;;;;;;;24.23;12.33;;;5.00;99.90;;;;;;5062225;28;20197;-64
2021/05/07 04:48:14;;;;;;;20.97;13.63;;;5.10;99.90;;;;;;5062828;28;20871;-63
2021/05/07 04:50:42;;;;;;;26.47;12.53;;;5.20;99.90;;;;;;5063955;28;20220;-64
2021/05/07 04:53:09;;;;;;;16.53;11.77;;;5.30;99.90;;;;;;5061646;28;20204;-63
2021/05/07 04:55:37;;;;;;;20.90;11.87;;;5.30;99.90;;;;;;5072589;28;20224;-63
2021/05/07 04:58:10;;;;;;;24.80;13.67;;;5.40;99.90;;;;;;5063098;28;20228;-63
2021/05/07 05:00:38;;;;;;;27.13;13.13;;;5.40;99.90;;;;;;5068085;28;20244;-64
2021/05/07 05:03:06;;;;;;;22.50;12.83;;;5.40;99.90;;;;;;5063854;28;20257;-64
2021/05/07 05:05:34;;;;;;;15.13;10.43;;;5.50;99.90;;;;;;5066499;28;20249;-63
2021/05/07 05:08:03;;;;;;;15.50;10.00;;;5.50;99.90;;;;;;5062672;28;20192;-64
2021/05/07 05:10:31;;;;;;;17.53;10.07;;;5.60;99.90;;;;;;5062317;28;20193;-63
2021/05/07 05:12:58;;;;;;;16.43;10.37;;;5.60;99.90;;;;;;5065848;28;20219;-64
2021/05/07 05:15:26;;;;;;;15.93;10.23;;;5.60;99.90;;;;;;5065799;28;20224;-63
2021/05/07 05:17:53;;;;;;;19.03;10.70;;;5.60;99.90;;;;;;5066207;28;20231;-64
2021/05/07 05:20:21;;;;;;;13.87;9.73;;;5.70;99.90;;;;;;5070364;28;20200;-63
2021/05/07 05:22:49;;;;;;;13.80;10.33;;;5.80;99.90;;;;;;5066877;28;20192;-64
2021/05/07 05:25:16;;;;;;;12.03;9.13;;;5.70;99.90;;;;;;5066103;28;20232;-63
2021/05/07 05:27:44;;;;;;;14.97;9.73;;;5.80;99.90;;;;;;5073286;28;20610;-63
2021/05/07 05:30:12;;;;;;;19.70;12.10;;;5.80;99.90;;;;;;5060814;28;20786;-64
2021/05/07 05:32:39;;;;;;;15.13;9.47;;;5.80;99.90;;;;;;5068179;28;20207;-64
2021/05/07 05:35:08;;;;;;;12.13;9.00;;;5.90;99.90;;;;;;5061742;28;20254;-64
2021/05/07 05:37:36;;;;;;;16.93;10.40;;;6.00;99.90;;;;;;5062452;28;20196;-63
2021/05/07 05:40:04;;;;;;;14.30;9.40;;;6.20;99.90;;;;;;5063509;28;20279;-64
2021/05/07 05:42:36;;;;;;;15.70;10.53;;;6.40;99.90;;;;;;5068064;28;20184;-64
2021/05/07 05:45:05;;;;;;;17.07;10.57;;;6.50;99.90;;;;;;5066753;28;20232;-64
2021/05/07 05:47:32;;;;;;;12.17;7.97;;;6.70;99.90;;;;;;5064295;28;20212;-64
2021/05/07 05:50:00;;;;;;;23.57;11.63;;;6.80;99.90;;;;;;5061431;28;20208;-64
2021/05/07 05:52:28;;;;;;;8.10;7.13;;;7.00;99.90;;;;;;5058541;28;20184;-64
2021/05/07 05:54:56;;;;;;;11.80;7.77;;;7.20;99.90;;;;;;5062028;28;20271;-64
2021/05/07 05:57:23;;;;;;;8.87;7.13;;;7.30;99.90;;;;;;5060530;28;20200;-64
2021/05/07 05:59:51;;;;;;;7.10;6.40;;;7.30;99.90;;;;;;5063026;28;20208;-64
2021/05/07 06:02:18;;;;;;;10.73;5.97;;;7.10;99.90;;;;;;5064064;28;20632;-64
2021/05/07 06:04:46;;;;;;;7.83;7.00;;;7.00;99.90;;;;;;5062847;28;20188;-64
2021/05/07 06:07:14;;;;;;;10.63;7.50;;;7.10;99.90;;;;;;5062234;28;20285;-63
2021/05/07 06:09:41;;;;;;;8.27;6.00;;;7.30;99.90;;;;;;5067303;28;20196;-64
2021/05/07 06:12:10;;;;;;;10.47;6.60;;;7.50;99.90;;;;;;5073168;28;20199;-64
2021/05/07 06:14:38;;;;;;;6.30;5.70;;;7.80;99.90;;;;;;5063129;28;20299;-64
2021/05/07 06:17:09;;;;;;;18.30;10.03;;;8.00;99.90;;;;;;5066999;28;20242;-64
2021/05/07 06:19:37;;;;;;;14.13;8.60;;;8.00;99.90;;;;;;5059966;28;20682;-65
2021/05/07 06:22:05;;;;;;;11.43;6.10;;;8.10;99.90;;;;;;5066665;28;20232;-64
2021/05/07 06:24:34;;;;;;;5.20;4.80;;;8.20;99.90;;;;;;5065800;28;20199;-64
2021/05/07 06:27:01;;;;;;;5.93;5.40;;;8.20;99.90;;;;;;5065820;28;20200;-64
2021/05/07 06:29:30;;;;;;;5.40;4.90;;;8.40;99.90;;;;;;5063925;28;20639;-64
2021/05/07 06:31:57;;;;;;;5.30;4.80;;;8.50;99.90;;;;;;5064485;28;20667;-64
2021/05/07 06:34:27;;;;;;;5.67;4.90;;;8.80;99.90;;;;;;5057535;28;20180;-64
2021/05/07 06:36:54;;;;;;;5.30;4.80;;;9.10;99.90;;;;;;5066241;28;20199;-66
2021/05/07 06:39:24;;;;;;;5.20;4.80;;;9.30;99.90;;;;;;5064900;28;20215;-64
2021/05/07 06:41:51;;;;;;;5.93;5.40;;;9.50;99.90;;;;;;5062271;28;20237;-64
2021/05/07 06:44:19;;;;;;;5.47;5.07;;;9.70;99.90;;;;;;5061669;28;20441;-64
2021/05/07 06:46:49;;;;;;;5.20;4.77;;;9.90;99.90;;;;;;5061417;28;20251;-65
2021/05/07 06:49:17;;;;;;;5.60;5.10;;;10.00;99.90;;;;;;5065323;28;21059;-64
2021/05/07 06:51:44;;;;;;;5.50;5.00;;;10.10;99.90;;;;;;5063566;28;20283;-65
2021/05/07 06:54:11;;;;;;;4.37;4.17;;;10.30;99.90;;;;;;5065949;28;20724;-65
2021/05/07 06:56:41;;;;;;;5.77;5.27;;;10.90;99.90;;;;;;5062631;28;20204;-65
2021/05/07 06:59:09;;;;;;;5.10;4.50;;;11.20;99.90;;;;;;5065961;28;20192;-65
2021/05/07 07:01:37;;;;;;;4.77;4.40;;;11.40;99.90;;;;;;5064474;28;20843;-65
2021/05/07 07:04:07;;;;;;;4.40;4.20;;;11.50;99.90;;;;;;5065537;28;20246;-65
2021/05/07 07:06:35;;;;;;;4.53;4.23;;;11.80;99.90;;;;;;5061731;28;20199;-65
2021/05/07 07:09:02;;;;;;;4.50;4.20;;;11.50;99.90;;;;;;5068439;28;20254;-64
2021/05/07 07:11:46;;;;;;;5.27;4.47;;;11.60;99.90;;;;;;5064409;28;20214;-65
2021/05/07 07:14:13;;;;;;;4.30;4.10;;;11.90;99.90;;;;;;5078141;28;20297;-65
2021/05/07 07:16:41;;;;;;;5.10;4.70;;;12.10;99.90;;;;;;5062443;28;20203;-65
2021/05/07 07:19:10;;;;;;;4.93;4.50;;;12.10;99.90;;;;;;5063419;28;20252;-64
2021/05/07 07:21:57;;;;;;;5.00;4.70;;;11.80;99.90;;;;;;5062001;28;20199;-65
2021/05/07 07:24:25;;;;;;;5.70;5.03;;;11.70;99.90;;;;;;5069514;28;20185;-65
2021/05/07 07:26:53;;;;;;;6.33;4.90;;;11.80;99.90;;;;;;5070562;28;20199;-66
2021/05/07 07:29:20;;;;;;;5.37;4.87;;;11.50;99.90;;;;;;5073710;28;20184;-65
2021/05/07 07:31:48;;;;;;;6.83;5.20;;;11.20;99.90;;;;;;5061467;28;20200;-65
2021/05/07 07:34:17;;;;;;;5.50;5.10;;;10.90;99.90;;;;;;5060779;28;20671;-64
2021/05/07 07:36:45;;;;;;;5.50;4.93;;;10.50;99.90;;;;;;5064895;28;20192;-65
2021/05/07 07:39:13;;;;;;;5.90;4.77;;;9.90;99.90;;;;;;5063621;28;20257;-65
2021/05/07 07:41:43;;;;;;;5.93;5.13;;;9.50;99.90;;;;;;5066797;28;20196;-65
2021/05/07 07:44:11;;;;;;;5.40;4.90;;;9.20;99.90;;;;;;5063167;28;20620;-64
2021/05/07 07:46:38;;;;;;;5.83;5.23;;;9.00;99.90;;;;;;5062434;28;20322;-65
2021/05/07 07:49:16;;;;;;;6.47;5.43;;;8.90;99.90;;;;;;5063486;28;20237;-65
2021/05/07 07:51:44;;;;;;;6.17;5.57;;;8.80;99.90;;;;;;5061436;28;20662;-64
2021/05/07 07:54:12;;;;;;;5.33;4.87;;;8.90;99.90;;;;;;5061935;28;20185;-65
2021/05/07 07:56:43;;;;;;;5.40;5.00;;;9.40;99.90;;;;;;5064232;28;20235;-65
2021/05/07 07:59:10;;;;;;;5.50;5.10;;;9.90;99.90;;;;;;5056626;28;20598;-65
2021/05/07 08:01:37;;;;;;;5.10;4.80;;;10.50;99.90;;;;;;5060977;28;20208;-65
2021/05/07 08:04:05;;;;;;;5.07;4.60;;;11.30;99.90;;;;;;5062832;28;20211;-66
2021/05/07 08:06:34;;;;;;;4.77;4.43;;;11.90;99.90;;;;;;5063282;28;20294;-65
2021/05/07 08:09:01;;;;;;;4.50;4.20;;;12.40;99.90;;;;;;5065313;28;20195;-65
2021/05/07 08:11:28;;;;;;;6.70;4.10;;;12.50;99.90;;;;;;5062709;28;20212;-65
2021/05/07 08:13:56;;;;;;;4.30;4.00;;;13.20;99.90;;;;;;5068384;28;20218;-66
2021/05/07 08:16:24;;;;;;;3.70;3.50;;;14.10;99.90;;;;;;5056261;28;20310;-66
2021/05/07 08:18:51;;;;;;;4.30;4.00;;;14.80;99.90;;;;;;5060675;28;20801;-65
2021/05/07 08:21:19;;;;;;;3.63;3.47;;;14.90;99.90;;;;;;5063451;28;20243;-65
2021/05/07 08:23:47;;;;;;;4.40;4.10;;;14.90;99.90;;;;;;5063296;28;20207;-66
2021/05/07 08:26:18;;;;;;;5.20;4.07;;;15.10;99.90;;;;;;5058310;28;20216;-65
2021/05/07 08:28:46;;;;;;;4.33;4.03;;;14.50;99.90;;;;;;5064375;28;20309;-65
2021/05/07 08:31:14;;;;;;;4.40;4.10;;;13.70;99.90;;;;;;5066775;28;20184;-66
2021/05/07 08:33:41;;;;;;;4.53;4.23;;;12.70;99.90;;;;;;5064101;28;20204;-65
2021/05/07 08:36:12;;;;;;;4.73;4.43;;;12.00;99.90;;;;;;5068456;28;20660;-65
2021/05/07 08:38:39;;;;;;;4.43;4.20;;;12.30;99.90;;;;;;5066636;28;20204;-65
2021/05/07 08:41:17;;;;;;;4.53;4.23;;;13.40;99.90;;;;;;5061998;28;20270;-66
2021/05/07 08:43:45;;;;;;;3.90;3.70;;;15.20;99.90;;;;;;5067716;28;20196;-66
2021/05/07 08:46:13;;;;;;;3.67;3.40;;;16.50;99.90;;;;;;5071252;28;20250;-66
2021/05/07 08:48:43;;;;;;;4.13;3.80;;;17.10;99.90;;;;;;5086529;28;20188;-66
2021/05/07 08:51:12;;;;;;;4.07;3.57;;;17.80;99.90;;;;;;5067195;28;20236;-66
2021/05/07 08:53:39;;;;;;;3.70;3.40;;;17.30;99.90;;;;;;5068257;28;20198;-66
2021/05/07 08:56:24;;;;;;;3.90;3.60;;;17.30;99.90;;;;;;5066549;28;20213;-66
2021/05/07 08:58:52;;;;;;;4.47;3.30;;;17.40;99.90;;;;;;5065135;28;20198;-66
2021/05/07 09:01:19;;;;;;;5.77;3.93;;;17.60;99.90;;;;;;5070644;28;20217;-66
2021/05/07 09:03:48;;;;;;;3.47;3.17;;;18.00;99.90;;;;;;5065459;28;20228;-67
2021/05/07 09:06:17;;;;;;;3.60;3.40;;;18.10;99.90;;;;;;5068810;28;20237;-67
2021/05/07 09:08:45;;;;;;;3.40;3.10;;;18.40;99.90;;;;;;5069056;28;20199;-66
2021/05/07 09:11:13;;;;;;;3.27;3.07;;;18.60;99.90;;;;;;5066974;28;20705;-67
2021/05/07 09:13:42;;;;;;;4.37;3.20;;;18.60;99.90;;;;;;5065570;28;20199;-66
2021/05/07 09:16:10;;;;;;;3.40;3.20;;;19.10;99.90;;;;;;5063494;28;20262;-67
2021/05/07 09:18:42;;;;;;;8.10;3.50;;;19.90;99.90;;;;;;5067477;28;20690;-66
2021/05/07 09:21:10;;;;;;;4.47;3.80;;;19.50;99.90;;;;;;5065265;28;20299;-67
2021/05/07 09:23:41;;;;;;;4.07;3.77;;;17.60;99.90;;;;;;5068876;28;20181;-66
2021/05/07 09:26:10;;;;;;;4.70;4.20;;;16.10;99.90;;;;;;5069008;28;20203;-66
2021/05/07 09:28:38;;;;;;;3.97;3.67;;;14.80;99.90;;;;;;5068869;28;20200;-65
2021/05/07 09:31:14;;;;;;;3.90;3.60;;;14.90;99.90;;;;;;5047223;28;20249;-66
2021/05/07 09:33:42;;;;;;;4.17;3.87;;;15.90;99.90;;;;;;5068255;28;20195;-66
2021/05/07 09:36:21;;;;;;;4.73;4.40;;;17.00;99.90;;;;;;5065354;28;20196;-65
2021/05/07 09:38:49;;;;;;;4.43;4.13;;;17.10;99.90;;;;;;5066202;28;20215;-66
2021/05/07 09:41:42;;;;;;;4.60;4.30;;;17.60;99.90;;;;;;5066937;28;20222;-66
2021/05/07 09:44:16;;;;;;;4.53;4.30;;;18.30;99.90;;;;;;5063665;28;20192;-66
2021/05/07 09:46:44;;;;;;;5.20;4.30;;;18.90;99.90;;;;;;5064523;28;20233;-66
2021/05/07 09:49:26;;;;;;;4.37;3.97;;;18.90;99.90;;;;;;5066829;28;20747;-66
2021/05/07 09:51:53;;;;;;;4.20;3.90;;;18.10;99.90;;;;;;5067523;28;20287;-66
2021/05/07 09:54:21;;;;;;;4.57;4.20;;;16.80;99.90;;;;;;5080277;28;20710;-66
2021/05/07 09:56:48;;;;;;;4.93;4.47;;;15.80;99.90;;;;;;5072884;28;20188;-65
2021/05/07 09:59:18;;;;;;;5.63;5.07;;;14.80;99.90;;;;;;5068992;28;20228;-66
2021/05/07 10:01:47;;;;;;;5.43;4.93;;;14.90;99.90;;;;;;5066312;28;20303;-66
2021/05/07 10:04:17;;;;;;;5.30;4.90;;;15.00;99.90;;;;;;5067502;28;20200;-66
2021/05/07 10:06:44;;;;;;;6.40;5.63;;;15.40;99.90;;;;;;5064722;28;20565;-66
2021/05/07 10:09:21;;;;;;;6.00;5.47;;;15.30;99.90;;;;;;5067041;28;20728;-66
2021/05/07 10:11:50;;;;;;;8.37;6.07;;;15.40;99.90;;;;;;5065716;28;20817;-66
2021/05/07 10:14:19;;;;;;;5.73;4.60;;;16.70;99.90;;;;;;5065452;28;20226;-66
2021/05/07 10:16:47;;;;;;;5.03;4.57;;;17.10;99.90;;;;;;5065637;28;20254;-65
2021/05/07 10:19:16;;;;;;;3.87;3.67;;;17.50;99.70;;;;;;5067943;28;20191;-66
2021/05/07 10:21:44;;;;;;;5.00;4.60;;;18.00;99.60;;;;;;5065310;28;20216;-66
2021/05/07 10:24:14;;;;;;;5.47;5.00;;;17.90;98.90;;;;;;5067303;28;20200;-66
2021/05/07 10:26:44;;;;;;;4.50;4.20;;;17.80;99.90;;;;;;5066058;28;20184;-66
2021/05/07 10:29:19;;;;;;;6.80;4.80;;;16.90;99.90;;;;;;5068928;28;20280;-66
2021/05/07 10:31:49;;;;;;;5.67;5.13;;;15.60;99.90;;;;;;5065947;28;20185;-66
2021/05/07 10:34:17;;;;;;;4.50;4.30;;;15.20;99.90;;;;;;5066665;28;20203;-66
2021/05/07 10:37:01;;;;;;;5.00;4.70;;;15.90;99.90;;;;;;5063652;28;20625;-66
2021/05/07 10:39:31;;;;;;;4.40;4.20;;;16.80;99.90;;;;;;5065619;28;20683;-66
2021/05/07 10:41:59;;;;;;;5.33;4.87;;;17.40;99.50;;;;;;5065840;28;20208;-67
2021/05/07 10:44:29;;;;;;;4.63;4.33;;;18.10;99.50;;;;;;5059849;28;20293;-66
2021/05/07 10:47:06;;;;;;;5.43;4.80;;;18.40;99.40;;;;;;5062249;28;20192;-67
2021/05/07 10:49:35;;;;;;;5.10;4.70;;;18.10;99.50;;;;;;5060376;28;20184;-65
2021/05/07 10:52:05;;;;;;;5.27;4.93;;;17.70;99.40;;;;;;5061771;28;20190;-66
2021/05/07 10:54:39;;;;;;;5.00;4.70;;;17.70;99.90;;;;;;5076445;28;20225;-66
2021/05/07 10:57:18;;;;;;;5.50;4.70;;;18.10;99.60;;;;;;5067102;28;20197;-66
2021/05/07 10:59:53;;;;;;;4.93;4.63;;;18.50;98.20;;;;;;5064498;28;20196;-66
2021/05/07 11:02:22;;;;;;;5.30;4.90;;;18.60;98.70;;;;;;5062647;28;20199;-66
2021/05/07 11:04:50;;;;;;;4.70;4.40;;;18.40;98.00;;;;;;5056003;28;20223;-65
2021/05/07 11:07:26;;;;;;;5.70;5.17;;;18.60;98.50;;;;;;5066332;28;20222;-66
2021/05/07 11:10:01;;;;;;;7.80;5.80;;;18.60;97.90;;;;;;5067043;28;20184;-66
2021/05/07 11:12:29;;;;;;;6.83;5.70;;;17.50;97.60;;;;;;5066559;28;20601;-66
2021/05/07 11:14:56;;;;;;;5.03;4.67;;;16.60;98.90;;;;;;5063543;28;20193;-65
2021/05/07 11:17:24;;;;;;;8.23;5.87;;;16.80;98.80;;;;;;5067699;28;20232;-65
2021/05/07 11:19:53;;;;;;;6.13;5.60;;;17.40;98.20;;;;;;5065261;28;20287;-66
2021/05/07 11:22:25;;;;;;;5.50;4.93;;;17.90;97.30;;;;;;5065340;28;20615;-65
2021/05/07 11:24:53;;;;;;;5.13;4.63;;;18.40;96.50;;;;;;5067343;28;20188;-65
2021/05/07 11:27:23;;;;;;;5.83;5.33;;;17.90;97.30;;;;;;5066812;28;20787;-65
2021/05/07 11:29:53;;;;;;;5.10;4.60;;;17.00;98.10;;;;;;5062950;28;20227;-65
2021/05/07 11:32:25;;;;;;;4.90;4.20;;;16.30;98.80;;;;;;5066015;28;20566;-65
2021/05/07 11:34:55;;;;;;;4.47;4.17;;;16.70;98.20;;;;;;5065785;28;20192;-65
2021/05/07 11:37:23;;;;;;;4.10;3.90;;;16.70;97.70;;;;;;5064938;28;20692;-65
2021/05/07 11:39:56;;;;;;;3.53;3.40;;;17.00;98.10;;;;;;5067524;28;20196;-65
2021/05/07 11:42:31;;;;;;;4.30;4.10;;;17.40;97.00;;;;;;5061802;28;20650;-65
2021/05/07 11:44:59;;;;;;;4.20;3.77;;;17.70;95.50;;;;;;5065027;28;20200;-65
2021/05/07 11:47:31;;;;;;;3.90;3.70;;;17.30;96.70;;;;;;5067018;28;20195;-65
2021/05/07 11:49:59;;;;;;;4.20;4.00;;;17.50;95.90;;;;;;5063206;28;21829;-65
2021/05/07 11:52:34;;;;;;;4.00;3.80;;;17.50;95.40;;;;;;5063537;28;20226;-65
2021/05/07 11:55:07;;;;;;;4.57;4.27;;;17.50;96.20;;;;;;5072706;28;20657;-65
2021/05/07 11:57:34;;;;;;;5.50;5.10;;;17.60;98.40;;;;;;5073847;28;20192;-65
2021/05/07 12:00:05;;;;;;;4.97;4.57;;;17.50;97.50;;;;;;5066616;28;20716;-65
2021/05/07 12:02:33;;;;;;;4.40;4.20;;;17.20;97.50;;;;;;5064463;28;20231;-65
2021/05/07 12:05:05;;;;;;;4.40;4.20;;;16.90;98.00;;;;;;5065489;28;20605;-65
2021/05/07 12:07:36;;;;;;;4.30;4.00;;;16.70;96.40;;;;;;5065304;28;21087;-65
2021/05/07 12:10:05;;;;;;;4.53;4.13;;;16.80;95.80;;;;;;5061494;28;20618;-65
2021/05/07 12:12:41;;;;;;;4.90;4.57;;;16.90;97.00;;;;;;5068510;28;20200;-65
2021/05/07 12:15:13;;;;;;;5.13;4.67;;;16.90;96.10;;;;;;5060817;28;20605;-64
2021/05/07 12:17:42;;;;;;;4.80;4.50;;;17.00;99.50;;;;;;5064118;28;20232;-64
2021/05/07 12:20:12;;;;;;;5.50;4.30;;;16.60;96.20;;;;;;5063284;28;20192;-64
2021/05/07 12:22:40;;;;;;;4.73;4.43;;;16.00;96.50;;;;;;5064838;28;20220;-64
2021/05/07 12:25:13;;;;;;;5.27;4.97;;;16.20;98.60;;;;;;5064816;28;20207;-65
2021/05/07 12:27:43;;;;;;;5.47;5.07;;;16.60;98.90;;;;;;5065252;28;20200;-65
2021/05/07 12:30:23;;;;;;;5.80;5.27;;;16.60;98.00;;;;;;5062264;28;20257;-64
2021/05/07 12:33:00;;;;;;;4.47;4.17;;;16.60;97.60;;;;;;5064340;28;20234;-65
2021/05/07 12:35:38;;;;;;;4.40;4.10;;;16.60;96.90;;;;;;5060998;28;20184;-64
2021/05/07 12:38:17;;;;;;;4.20;3.90;;;16.40;97.00;;;;;;5064594;28;20199;-65
2021/05/07 12:40:44;;;;;;;4.67;4.30;;;16.40;96.50;;;;;;5062925;28;20231;-64
2021/05/07 12:43:12;;;;;;;4.30;4.10;;;16.50;95.80;;;;;;5061527;28;20192;-65
2021/05/07 12:45:39;;;;;;;4.07;3.67;;;16.20;97.70;;;;;;5063093;28;20203;-64
2021/05/07 12:48:08;;;;;;;3.67;3.47;;;16.60;97.60;;;;;;5066744;28;20196;-64
2021/05/07 12:50:36;;;;;;;4.53;4.13;;;16.50;97.80;;;;;;5063973;28;20263;-64
2021/05/07 12:53:08;;;;;;;3.50;3.30;;;16.60;98.00;;;;;;5079770;28;20227;-65